Time;durP1;ratioP1;P1;durP2;ratioP2;P2;SDS_P1;SDS_P2;PMS_P1;PMS_P2;Temp;Humidity;BMP_temperature;BMP_pressure;BME280_temperature;BME280_humidity;BME280_pressure;Samples;Min_cycle;Max_cycle;Signal;HPM_P1;HPM_P2
2021/06/29 00:02:25;;;;;;;11.68;9.00;;;21.60;99.90;;;;;;5049983;28;20025;-86
2021/06/29 00:04:52;;;;;;;9.40;8.50;;;21.60;99.90;;;;;;5051270;28;20033;-86
2021/06/29 00:07:18;;;;;;;10.43;8.73;;;21.60;99.90;;;;;;5050074;28;20449;-86
2021/06/29 00:09:44;;;;;;;9.50;8.50;;;21.60;99.90;;;;;;5051590;28;20367;-86
2021/06/29 00:12:11;;;;;;;10.25;9.25;;;21.50;99.90;;;;;;5054990;28;20100;-86
2021/06/29 00:14:37;;;;;;;11.18;9.10;;;21.60;99.90;;;;;;5054996;28;20025;-86
2021/06/29 00:17:03;;;;;;;9.90;8.90;;;21.60;99.90;;;;;;5054869;28;20040;-86
2021/06/29 00:19:29;;;;;;;9.57;8.52;;;21.60;99.90;;;;;;5052960;28;20440;-86
2021/06/29 00:21:54;;;;;;;9.45;8.45;;;21.60;99.90;;;;;;5053231;28;20041;-86
2021/06/29 00:24:20;;;;;;;13.02;9.18;;;21.60;99.90;;;;;;5054628;28;20508;-86
2021/06/29 00:26:45;;;;;;;10.38;8.98;;;21.60;99.90;;;;;;5054860;28;20151;-86
2021/06/29 00:29:11;;;;;;;10.95;8.93;;;21.60;99.90;;;;;;5052886;28;20029;-86
2021/06/29 00:31:37;;;;;;;11.32;9.40;;;21.60;99.90;;;;;;5052937;28;20028;-86
2021/06/29 00:34:03;;;;;;;10.10;9.10;;;21.60;99.90;;;;;;5053232;28;20032;-86
2021/06/29 00:36:29;;;;;;;9.75;8.68;;;21.50;99.90;;;;;;5054518;28;20025;-86
2021/06/29 00:38:54;;;;;;;10.10;9.05;;;21.50;99.90;;;;;;5052661;28;20112;-86
2021/06/29 00:41:20;;;;;;;10.50;9.43;;;21.50;99.90;;;;;;5053067;28;20079;-86
2021/06/29 00:43:47;;;;;;;10.13;8.93;;;21.50;99.90;;;;;;5054506;28;20086;-86
2021/06/29 00:46:14;;;;;;;11.90;10.70;;;21.50;99.90;;;;;;5052798;28;20486;-86
2021/06/29 00:48:39;;;;;;;13.10;10.32;;;21.50;99.90;;;;;;5054333;28;20478;-86
2021/06/29 00:51:06;;;;;;;11.00;9.90;;;21.50;99.90;;;;;;5052372;28;20043;-86
2021/06/29 00:53:32;;;;;;;10.93;9.80;;;21.50;99.90;;;;;;5054165;28;20021;-86
2021/06/29 00:55:57;;;;;;;11.05;9.73;;;21.50;99.90;;;;;;5054198;28;20025;-87
2021/06/29 00:58:23;;;;;;;12.43;10.52;;;21.50;99.90;;;;;;5052696;28;20120;-86
2021/06/29 01:00:51;;;;;;;11.15;10.05;;;21.50;99.90;;;;;;5052214;28;20029;-86
2021/06/29 01:03:16;;;;;;;10.65;9.55;;;21.50;99.90;;;;;;5052739;28;20473;-86
2021/06/29 01:05:43;;;;;;;10.70;9.45;;;21.50;99.90;;;;;;5053880;28;20039;-86
2021/06/29 01:08:09;;;;;;;10.65;9.55;;;21.50;99.90;;;;;;5052582;28;20024;-86
2021/06/29 01:10:34;;;;;;;10.88;9.60;;;21.50;99.90;;;;;;5053393;28;20096;-86
2021/06/29 01:13:00;;;;;;;10.85;9.30;;;21.50;99.90;;;;;;5052513;28;20021;-86
2021/06/29 01:15:26;;;;;;;11.07;9.63;;;21.50;99.90;;;;;;5053858;28;20112;-86
2021/06/29 01:17:53;;;;;;;9.75;8.75;;;21.50;99.90;;;;;;5053840;28;20032;-86
2021/06/29 01:20:29;;;;;;;12.77;10.10;;;21.50;99.90;;;;;;5051474;28;20495;-86
2021/06/29 01:23:08;;;;;;;12.27;9.68;;;21.50;99.90;;;;;;5053681;28;20078;-86
2021/06/29 01:25:34;;;;;;;11.18;9.90;;;21.60;99.90;;;;;;5053730;28;20596;-87
2021/06/29 01:32:52;;;;;;;10.52;4.97;;;21.50;99.90;;;;;;5053515;28;20025;-85
2021/06/29 01:35:18;;;;;;;7.68;3.97;;;21.40;99.90;;;;;;5053514;28;20024;-85
2021/06/29 01:37:43;;;;;;;5.72;3.63;;;21.20;99.90;;;;;;5052473;28;20025;-86
2021/06/29 01:40:28;;;;;;;7.43;4.10;;;21.00;99.90;;;;;;5051466;28;20029;-85
2021/06/29 01:42:57;;;;;;;6.25;3.97;;;20.90;99.90;;;;;;5053350;28;20028;-85
2021/06/29 01:45:23;;;;;;;6.70;3.88;;;20.80;99.90;;;;;;5052063;28;20035;-86
2021/06/29 01:50:16;;;;;;;6.10;4.53;;;20.70;99.90;;;;;;5052784;28;20047;-86
2021/06/29 01:52:42;;;;;;;7.45;4.63;;;20.70;99.90;;;;;;5051778;28;20614;-86
2021/06/29 01:55:09;;;;;;;10.50;5.88;;;20.70;99.90;;;;;;5053034;28;20075;-86
2021/06/29 01:57:38;;;;;;;9.85;6.55;;;20.70;99.90;;;;;;5052933;28;20059;-86
2021/06/29 02:00:09;;;;;;;11.95;8.40;;;20.70;99.90;;;;;;5051042;28;20021;-86
2021/06/29 02:02:35;;;;;;;12.60;10.20;;;20.70;99.90;;;;;;5052879;28;20099;-85
2021/06/29 02:05:01;;;;;;;11.30;8.98;;;20.70;99.90;;;;;;5051616;28;20031;-86
2021/06/29 02:07:27;;;;;;;14.07;10.18;;;20.70;99.90;;;;;;5051502;28;20310;-86
2021/06/29 02:09:52;;;;;;;13.75;11.13;;;20.70;99.90;;;;;;5052209;28;20025;-85
2021/06/29 02:12:18;;;;;;;13.93;10.57;;;20.70;99.90;;;;;;5052782;28;20083;-86
2021/06/29 02:14:44;;;;;;;12.77;10.68;;;20.70;99.90;;;;;;5051344;28;20428;-86
2021/06/29 02:17:09;;;;;;;14.35;11.75;;;20.60;99.90;;;;;;5052730;28;20028;-86
2021/06/29 02:19:35;;;;;;;13.73;11.80;;;20.60;99.90;;;;;;5051963;28;20036;-85
2021/06/29 02:22:01;;;;;;;15.15;11.68;;;20.60;99.90;;;;;;5052585;28;20087;-85
2021/06/29 02:24:27;;;;;;;15.23;12.63;;;20.50;99.90;;;;;;5051253;28;20025;-86
2021/06/29 02:26:53;;;;;;;14.57;12.80;;;20.50;99.90;;;;;;5051171;28;20029;-86
2021/06/29 02:29:18;;;;;;;16.13;12.75;;;20.50;99.90;;;;;;5050453;28;20060;-86
2021/06/29 02:31:44;;;;;;;15.82;12.57;;;20.40;99.90;;;;;;5050487;28;20025;-86
2021/06/29 02:34:10;;;;;;;14.73;11.48;;;20.40;99.90;;;;;;5051297;28;20018;-86
2021/06/29 02:36:35;;;;;;;17.15;13.80;;;20.40;99.90;;;;;;5052324;28;20033;-86
2021/06/29 02:39:01;;;;;;;15.98;13.20;;;20.40;99.90;;;;;;5050556;28;20021;-86
2021/06/29 02:41:27;;;;;;;15.65;13.30;;;20.30;99.90;;;;;;5050076;28;20333;-86
2021/06/29 02:43:52;;;;;;;16.05;13.68;;;20.30;99.90;;;;;;5049762;28;20025;-86
2021/06/29 02:46:18;;;;;;;19.95;15.07;;;20.30;99.90;;;;;;5050735;28;20162;-86
2021/06/29 02:48:44;;;;;;;18.05;14.00;;;20.30;99.90;;;;;;5052153;28;20075;-86
2021/06/29 02:51:09;;;;;;;15.93;14.00;;;20.30;99.90;;;;;;5050145;28;20061;-86
2021/06/29 02:53:35;;;;;;;17.52;13.93;;;20.30;99.90;;;;;;5052132;28;20476;-86
2021/06/29 02:56:01;;;;;;;19.05;13.98;;;20.20;99.90;;;;;;5052075;28;20025;-85
2021/06/29 02:58:27;;;;;;;16.50;13.20;;;20.20;99.90;;;;;;5051898;28;20532;-86
2021/06/29 03:00:52;;;;;;;17.08;13.38;;;20.20;99.90;;;;;;5050103;28;20056;-86
2021/06/29 03:03:18;;;;;;;15.13;12.15;;;20.20;99.90;;;;;;5050472;28;20029;-86
2021/06/29 03:05:44;;;;;;;16.52;12.45;;;20.20;99.90;;;;;;5050652;28;20033;-86
2021/06/29 03:08:09;;;;;;;18.50;12.63;;;20.20;99.90;;;;;;5050720;28;20033;-85
2021/06/29 03:10:35;;;;;;;14.55;12.05;;;20.20;99.90;;;;;;5050048;28;20028;-86
2021/06/29 03:13:01;;;;;;;14.52;11.73;;;20.20;99.90;;;;;;5050512;28;20017;-86
2021/06/29 03:15:27;;;;;;;14.43;11.63;;;20.20;99.90;;;;;;5050752;28;20111;-86
2021/06/29 03:17:53;;;;;;;12.45;10.40;;;20.20;99.90;;;;;;5050623;28;20540;-86
2021/06/29 03:20:19;;;;;;;13.70;11.25;;;20.20;99.90;;;;;;5051200;28;20065;-86
2021/06/29 03:22:46;;;;;;;14.13;12.35;;;20.20;99.90;;;;;;5051684;28;20021;-86
2021/06/29 03:25:11;;;;;;;14.52;11.57;;;20.20;99.90;;;;;;5050503;28;20031;-86
2021/06/29 03:27:38;;;;;;;15.40;12.48;;;20.10;99.90;;;;;;5051938;28;20029;-86
2021/06/29 03:30:05;;;;;;;16.55;13.00;;;20.20;99.90;;;;;;5049795;28;20017;-86
2021/06/29 03:32:31;;;;;;;14.63;11.23;;;20.10;99.90;;;;;;5050356;28;20134;-86
2021/06/29 03:34:56;;;;;;;14.95;11.90;;;20.10;99.90;;;;;;5050321;28;20017;-86
2021/06/29 03:37:22;;;;;;;13.50;11.27;;;20.10;99.90;;;;;;5050382;28;20025;-85
2021/06/29 03:39:47;;;;;;;16.55;12.13;;;20.10;99.90;;;;;;5051587;28;20025;-85
2021/06/29 03:42:13;;;;;;;17.20;13.10;;;20.10;99.90;;;;;;5052854;28;20025;-84
2021/06/29 03:44:39;;;;;;;14.52;12.23;;;20.10;99.90;;;;;;5054797;28;20025;-84
2021/06/29 03:47:05;;;;;;;13.77;11.40;;;20.00;99.90;;;;;;5054326;28;20021;-84
2021/06/29 03:49:30;;;;;;;14.88;11.68;;;20.00;99.90;;;;;;5054821;28;20017;-84
2021/06/29 03:51:57;;;;;;;13.23;11.82;;;20.10;99.90;;;;;;5055614;28;20465;-85
2021/06/29 03:54:22;;;;;;;12.80;11.07;;;20.00;99.90;;;;;;5054413;28;20021;-84
2021/06/29 03:56:48;;;;;;;12.27;10.57;;;20.10;99.90;;;;;;5054284;28;20029;-85
2021/06/29 03:59:14;;;;;;;12.57;9.95;;;20.10;99.90;;;;;;5053497;28;20072;-86
2021/06/29 04:01:40;;;;;;;13.60;11.32;;;20.10;99.90;;;;;;5055040;28;20389;-86
2021/06/29 04:04:06;;;;;;;13.07;11.20;;;20.20;99.90;;;;;;5053890;28;20488;-85
2021/06/29 04:06:34;;;;;;;15.43;12.18;;;20.20;99.90;;;;;;5055154;28;20158;-86
2021/06/29 04:09:01;;;;;;;14.45;11.50;;;20.30;99.90;;;;;;5054653;28;20020;-86
2021/06/29 04:11:27;;;;;;;13.27;11.00;;;20.30;99.90;;;;;;5054796;28;20029;-86
2021/06/29 04:13:54;;;;;;;13.35;10.82;;;20.30;99.90;;;;;;5053768;28;20024;-86
2021/06/29 04:16:20;;;;;;;13.80;10.45;;;20.30;99.90;;;;;;5054917;28;20206;-86
2021/06/29 04:18:46;;;;;;;10.68;9.48;;;20.30;99.90;;;;;;5053590;28;20033;-86
2021/06/29 04:21:12;;;;;;;11.70;9.88;;;20.30;99.90;;;;;;5052940;28;20094;-86
2021/06/29 04:23:39;;;;;;;11.52;9.85;;;20.30;99.90;;;;;;5055314;28;20025;-85
2021/06/29 04:26:05;;;;;;;12.23;9.18;;;20.30;99.90;;;;;;5053314;28;20029;-86
2021/06/29 04:28:31;;;;;;;9.90;8.25;;;20.30;99.90;;;;;;5054858;28;20024;-86
2021/06/29 04:30:57;;;;;;;10.32;8.80;;;20.30;99.90;;;;;;5054186;28;20112;-86
2021/06/29 04:33:23;;;;;;;11.48;8.93;;;20.30;99.90;;;;;;5054523;28;20029;-85
2021/06/29 04:35:48;;;;;;;11.75;8.68;;;20.30;99.90;;;;;;5054542;28;20492;-86
2021/06/29 04:38:14;;;;;;;12.48;9.57;;;20.30;99.90;;;;;;5054517;28;20052;-85
2021/06/29 04:40:40;;;;;;;13.80;10.85;;;20.30;99.90;;;;;;5052602;28;20512;-85
2021/06/29 04:43:06;;;;;;;12.88;10.93;;;20.30;99.90;;;;;;5054518;28;20025;-85
2021/06/29 04:45:32;;;;;;;13.10;9.70;;;20.30;99.90;;;;;;5054579;28;20090;-85
2021/06/29 04:47:57;;;;;;;14.35;11.30;;;20.30;99.90;;;;;;5052986;28;20482;-86
2021/06/29 04:50:24;;;;;;;14.00;10.10;;;20.20;99.90;;;;;;5052468;28;20474;-85
2021/06/29 04:52:51;;;;;;;12.13;9.98;;;20.20;99.90;;;;;;5054231;28;20024;-85
2021/06/29 04:55:18;;;;;;;13.10;10.18;;;20.20;99.90;;;;;;5052368;28;20017;-85
2021/06/29 04:57:44;;;;;;;12.32;10.52;;;20.20;99.90;;;;;;5053020;28;20033;-86
2021/06/29 05:00:13;;;;;;;18.10;13.52;;;20.30;99.90;;;;;;5052307;28;20025;-85
2021/06/29 05:02:39;;;;;;;32.50;18.65;;;20.30;99.90;;;;;;5052842;28;20039;-86
2021/06/29 05:05:06;;;;;;;17.63;12.32;;;20.30;99.90;;;;;;5054383;28;20152;-88
2021/06/29 05:07:32;;;;;;;14.35;11.65;;;20.30;99.90;;;;;;5052969;28;20496;-88
2021/06/29 05:09:58;;;;;;;18.35;14.00;;;20.30;99.90;;;;;;5053828;28;20085;-88
2021/06/29 05:12:24;;;;;;;19.13;14.00;;;20.30;99.90;;;;;;5052745;28;20120;-87
2021/06/29 05:14:50;;;;;;;16.48;13.93;;;20.30;99.90;;;;;;5052778;28;20021;-87
2021/06/29 05:17:15;;;;;;;16.95;14.40;;;20.30;99.90;;;;;;5054061;28;20534;-87
2021/06/29 05:19:41;;;;;;;22.02;15.10;;;20.30;99.90;;;;;;5052061;28;20025;-87
2021/06/29 05:22:07;;;;;;;18.88;15.60;;;20.30;99.90;;;;;;5054376;28;20040;-84
2021/06/29 05:24:32;;;;;;;20.30;15.60;;;20.40;99.90;;;;;;5052442;28;20053;-83
2021/06/29 05:26:58;;;;;;;18.48;15.15;;;20.40;99.90;;;;;;5052808;28;20021;-84
2021/06/29 05:29:24;;;;;;;20.67;16.70;;;20.40;99.90;;;;;;5052544;28;20533;-85
2021/06/29 05:31:50;;;;;;;22.10;15.45;;;20.50;99.90;;;;;;5053426;28;20478;-87
2021/06/29 05:34:15;;;;;;;25.83;19.40;;;20.50;99.90;;;;;;5052239;28;20120;-87
2021/06/29 05:36:42;;;;;;;24.40;18.73;;;20.50;99.90;;;;;;5052375;28;20036;-86
2021/06/29 05:39:08;;;;;;;22.27;17.73;;;20.60;99.90;;;;;;5051750;28;20113;-86
2021/06/29 05:41:34;;;;;;;26.30;19.88;;;20.60;99.90;;;;;;5053368;28;20385;-85
2021/06/29 05:44:00;;;;;;;23.15;17.58;;;20.60;99.90;;;;;;5053551;28;20033;-86
2021/06/29 05:46:25;;;;;;;26.08;18.70;;;20.70;99.90;;;;;;5051898;28;20029;-86
2021/06/29 05:48:52;;;;;;;25.63;20.42;;;20.60;99.90;;;;;;5052947;28;20104;-86
2021/06/29 05:51:18;;;;;;;26.35;20.95;;;20.60;99.90;;;;;;5052866;28;20064;-85
2021/06/29 05:53:44;;;;;;;26.90;21.33;;;20.60;99.90;;;;;;5053429;28;20021;-85
2021/06/29 05:56:10;;;;;;;27.63;21.70;;;20.60;99.90;;;;;;5054249;28;20032;-86
2021/06/29 05:58:37;;;;;;;31.52;23.02;;;20.50;99.90;;;;;;5051969;28;20025;-86
2021/06/29 06:01:04;;;;;;;31.52;21.52;;;20.50;99.90;;;;;;5052529;28;20052;-86
2021/06/29 06:03:30;;;;;;;29.30;22.20;;;20.50;99.90;;;;;;5051909;28;20111;-86
2021/06/29 06:05:57;;;;;;;29.40;22.70;;;20.50;99.90;;;;;;5051085;28;20552;-86
2021/06/29 06:08:23;;;;;;;30.15;22.17;;;20.40;99.90;;;;;;5052637;28;20048;-86
2021/06/29 06:10:49;;;;;;;34.25;22.73;;;20.40;99.90;;;;;;5051155;28;20021;-86
2021/06/29 06:13:14;;;;;;;28.38;21.42;;;20.40;99.90;;;;;;5053390;28;20028;-86
2021/06/29 06:15:40;;;;;;;27.90;19.60;;;20.40;99.90;;;;;;5051792;28;20048;-86
2021/06/29 06:18:06;;;;;;;23.92;18.25;;;20.40;99.90;;;;;;5053506;28;20021;-86
2021/06/29 06:20:36;;;;;;;25.70;19.58;;;20.40;99.90;;;;;;5052019;28;20060;-86
2021/06/29 06:23:02;;;;;;;23.48;18.45;;;20.40;99.90;;;;;;5052649;28;20377;-86
2021/06/29 06:25:28;;;;;;;21.73;16.63;;;20.50;99.90;;;;;;5053095;28;20021;-86
2021/06/29 06:27:54;;;;;;;23.13;18.30;;;20.50;99.90;;;;;;5052086;28;20031;-86
2021/06/29 06:30:20;;;;;;;18.88;15.07;;;20.50;99.90;;;;;;5059357;28;20052;-86
2021/06/29 06:32:45;;;;;;;28.92;17.42;;;20.60;99.90;;;;;;5073175;28;20031;-86
2021/06/29 06:35:11;;;;;;;24.70;16.75;;;20.60;99.90;;;;;;5074048;28;20484;-86
2021/06/29 06:37:38;;;;;;;20.13;15.18;;;20.70;99.90;;;;;;5074471;28;20110;-86
2021/06/29 06:40:07;;;;;;;20.90;15.52;;;20.80;99.90;;;;;;5073910;28;20047;-86
2021/06/29 06:42:33;;;;;;;18.02;13.52;;;20.80;99.90;;;;;;5058196;28;20397;-86
2021/06/29 06:44:59;;;;;;;14.80;11.48;;;20.80;99.90;;;;;;5054569;28;20385;-85
2021/06/29 06:47:25;;;;;;;15.00;11.20;;;20.80;99.90;;;;;;5053969;28;20021;-86
2021/06/29 06:49:51;;;;;;;14.02;9.80;;;20.80;99.90;;;;;;5051018;28;20029;-86
2021/06/29 06:52:18;;;;;;;13.88;9.95;;;20.90;99.90;;;;;;5051557;28;20049;-86
2021/06/29 06:54:44;;;;;;;14.02;9.10;;;20.80;99.90;;;;;;5051354;28;20032;-86
2021/06/29 06:57:10;;;;;;;12.05;8.85;;;20.70;99.90;;;;;;5051863;28;20032;-86
2021/06/29 06:59:36;;;;;;;14.57;8.55;;;20.70;99.90;;;;;;5051995;28;20120;-86
2021/06/29 07:02:02;;;;;;;11.15;8.23;;;20.70;99.90;;;;;;5055862;28;20032;-86
2021/06/29 07:04:28;;;;;;;12.38;9.00;;;20.70;99.90;;;;;;5072334;28;20033;-86
2021/06/29 07:06:54;;;;;;;11.25;8.80;;;20.80;99.90;;;;;;5072757;28;20029;-86
2021/06/29 07:09:20;;;;;;;10.52;7.97;;;20.80;99.90;;;;;;5073328;28;20025;-86
2021/06/29 07:11:46;;;;;;;11.88;9.07;;;20.80;99.90;;;;;;5073546;28;20398;-86
2021/06/29 07:14:12;;;;;;;13.23;8.98;;;20.90;99.90;;;;;;5074286;28;20071;-86
2021/06/29 07:16:38;;;;;;;13.18;10.10;;;21.00;99.90;;;;;;5074776;28;20029;-86
2021/06/29 07:19:04;;;;;;;14.95;9.90;;;21.00;99.90;;;;;;5056072;28;20029;-86
2021/06/29 07:21:30;;;;;;;14.93;10.13;;;21.00;99.90;;;;;;5050279;28;20151;-86
2021/06/29 07:23:57;;;;;;;14.57;11.18;;;21.00;99.90;;;;;;5052203;28;20032;-86
2021/06/29 07:26:23;;;;;;;15.32;10.52;;;21.00;99.90;;;;;;5050660;28;20396;-86
2021/06/29 07:28:49;;;;;;;13.98;9.13;;;21.00;99.90;;;;;;5051538;28;20144;-86
2021/06/29 07:31:17;;;;;;;15.02;9.60;;;21.00;99.90;;;;;;5051336;28;20021;-86
2021/06/29 07:33:46;;;;;;;15.77;9.23;;;21.00;99.90;;;;;;5050481;28;20100;-86
2021/06/29 07:36:15;;;;;;;12.55;8.75;;;21.00;99.90;;;;;;5051625;28;20025;-86
2021/06/29 07:38:40;;;;;;;13.20;9.40;;;21.00;99.90;;;;;;5050390;28;20033;-86
2021/06/29 07:41:06;;;;;;;12.15;8.50;;;21.00;99.90;;;;;;5051049;28;20422;-86
2021/06/29 07:43:32;;;;;;;11.85;8.63;;;21.00;99.90;;;;;;5051379;28;20021;-86
2021/06/29 07:45:57;;;;;;;12.27;8.63;;;21.00;99.90;;;;;;5051514;28;20033;-86
2021/06/29 07:48:23;;;;;;;12.38;9.18;;;21.00;99.90;;;;;;5051553;28;20021;-86
2021/06/29 07:50:49;;;;;;;14.82;11.32;;;21.00;99.90;;;;;;5051001;28;20100;-86
2021/06/29 07:53:15;;;;;;;17.20;12.32;;;21.10;99.90;;;;;;5051397;28;20025;-86
2021/06/29 07:55:40;;;;;;;14.93;11.60;;;21.10;99.90;;;;;;5050268;28;20504;-86
2021/06/29 07:58:06;;;;;;;19.92;13.65;;;21.10;99.90;;;;;;5050278;28;20473;-86
2021/06/29 08:00:32;;;;;;;16.15;11.05;;;21.10;99.90;;;;;;5049391;28;20029;-86
2021/06/29 08:02:59;;;;;;;13.35;11.15;;;21.10;99.90;;;;;;5051257;28;20473;-86
2021/06/29 08:05:25;;;;;;;15.75;10.98;;;21.10;99.90;;;;;;5050318;28;20017;-86
2021/06/29 08:07:50;;;;;;;16.98;11.80;;;21.20;99.90;;;;;;5051246;28;20028;-86
2021/06/29 08:10:17;;;;;;;17.52;13.38;;;21.20;99.90;;;;;;5050613;28;20021;-86
2021/06/29 08:12:43;;;;;;;20.67;14.90;;;21.20;99.90;;;;;;5051356;28;20381;-86
2021/06/29 08:15:10;;;;;;;21.88;15.20;;;21.30;99.90;;;;;;5050144;28;20025;-86
2021/06/29 08:17:35;;;;;;;21.35;16.98;;;21.30;99.90;;;;;;5050384;28;20029;-86
2021/06/29 08:20:01;;;;;;;20.60;16.20;;;21.30;99.90;;;;;;5050828;28;20504;-86
2021/06/29 08:22:27;;;;;;;21.13;17.15;;;21.20;99.90;;;;;;5051465;28;20111;-86
2021/06/29 08:24:52;;;;;;;25.48;19.98;;;21.20;99.90;;;;;;5050498;28;20075;-86
2021/06/29 08:27:19;;;;;;;27.58;19.70;;;21.30;99.90;;;;;;5051242;28;20100;-86
2021/06/29 08:29:45;;;;;;;28.00;19.52;;;21.20;99.90;;;;;;5051131;28;20100;-86
2021/06/29 08:32:14;;;;;;;30.52;21.58;;;21.20;99.90;;;;;;5054672;28;20025;-86
2021/06/29 08:34:40;;;;;;;;;;;21.20;99.90;;;;;;5053990;28;20025;-86
2021/06/29 08:37:05;;;;;;;27.80;20.08;;;21.20;99.90;;;;;;5054534;28;19916;-86
2021/06/29 08:39:31;;;;;;;30.52;22.38;;;21.20;99.90;;;;;;5055810;28;20025;-86
2021/06/29 08:41:57;;;;;;;30.58;22.45;;;21.20;99.90;;;;;;5054283;28;20028;-86
2021/06/29 08:44:23;;;;;;;32.03;21.60;;;21.20;99.90;;;;;;5055245;28;20029;-86
2021/06/29 08:46:49;;;;;;;30.08;22.15;;;21.10;99.90;;;;;;5054406;28;20082;-86
2021/06/29 08:49:15;;;;;;;27.58;20.33;;;21.10;99.90;;;;;;5052596;28;20025;-86
2021/06/29 08:51:40;;;;;;;28.13;20.02;;;21.10;99.90;;;;;;5052984;28;20086;-86
2021/06/29 08:54:07;;;;;;;29.63;20.05;;;21.20;99.90;;;;;;5054344;28;20397;-86
2021/06/29 08:56:33;;;;;;;27.48;20.25;;;21.30;99.90;;;;;;5052987;28;20021;-86
2021/06/29 08:58:59;;;;;;;27.55;20.13;;;21.30;99.90;;;;;;5053541;28;20048;-86
2021/06/29 09:01:29;;;;;;;27.05;19.35;;;21.40;99.90;;;;;;5052662;28;20071;-86
2021/06/29 09:03:56;;;;;;;32.53;23.98;;;21.40;99.90;;;;;;5054142;28;20059;-86
2021/06/29 09:06:39;;;;;;;28.25;21.20;;;21.40;99.90;;;;;;5053964;28;20116;-86
2021/06/29 09:09:26;;;;;;;28.83;19.88;;;21.50;99.90;;;;;;5052250;28;20086;-86
2021/06/29 09:11:52;;;;;;;30.75;20.73;;;21.50;99.90;;;;;;5054067;28;20544;-86
2021/06/29 09:14:19;;;;;;;26.33;20.05;;;21.50;99.90;;;;;;5054025;28;20021;-86
2021/06/29 09:16:47;;;;;;;30.58;19.67;;;21.60;99.90;;;;;;5052793;28;20048;-86
2021/06/29 09:19:33;;;;;;;30.42;22.58;;;21.60;99.90;;;;;;5052373;28;20029;-86
2021/06/29 09:22:31;;;;;;;21.05;17.00;;;21.70;99.90;;;;;;5053720;28;20082;-86
2021/06/29 09:24:57;;;;;;;;;;;21.70;99.90;;;;;;5054374;28;20025;-86
2021/06/29 09:27:43;;;;;;;31.95;22.27;;;21.80;99.90;;;;;;5052367;28;19908;-86
2021/06/29 09:30:33;;;;;;;35.10;25.42;;;21.80;99.90;;;;;;5051707;28;20025;-86
2021/06/29 09:33:07;;;;;;;37.60;26.17;;;21.80;99.90;;;;;;5052418;28;20013;-86
2021/06/29 09:35:34;;;;;;;36.03;23.58;;;21.90;99.90;;;;;;5052263;28;20021;-86
2021/06/29 09:38:00;;;;;;;35.72;25.77;;;21.90;99.90;;;;;;5052323;28;20025;-86
2021/06/29 09:40:28;;;;;;;38.38;28.48;;;21.90;99.90;;;;;;5051408;28;20090;-86
2021/06/29 09:43:13;;;;;;;40.33;28.25;;;21.90;99.70;;;;;;5052143;28;20481;-86
2021/06/29 09:45:46;;;;;;;34.25;25.08;;;21.90;99.90;;;;;;5052119;28;20029;-86
2021/06/29 09:48:17;;;;;;;37.97;25.88;;;21.90;99.90;;;;;;5052009;28;20555;-86
2021/06/29 09:50:53;;;;;;;37.00;25.48;;;22.00;99.90;;;;;;5051372;28;20025;-86
2021/06/29 09:53:37;;;;;;;39.40;27.60;;;22.10;99.90;;;;;;5051902;28;20028;-86
2021/06/29 09:56:06;;;;;;;35.17;26.38;;;22.20;99.10;;;;;;5053503;28;20036;-86
2021/06/29 09:58:32;;;;;;;33.85;24.70;;;22.30;98.90;;;;;;5051862;28;20070;-86
2021/06/29 10:01:00;;;;;;;36.22;25.45;;;22.30;99.10;;;;;;5052467;28;20040;-86
2021/06/29 10:03:28;;;;;;;33.85;23.27;;;22.30;98.90;;;;;;5051668;28;20029;-86
2021/06/29 10:05:58;;;;;;;29.35;22.80;;;22.30;99.30;;;;;;5052942;28;20029;-86
2021/06/29 10:08:34;;;;;;;30.75;22.42;;;22.40;99.30;;;;;;5051784;28;20025;-86
2021/06/29 10:11:13;;;;;;;32.05;24.00;;;22.40;98.80;;;;;;5052357;28;20029;-86
2021/06/29 10:13:42;;;;;;;31.58;22.27;;;22.40;97.90;;;;;;5051649;28;20421;-86
2021/06/29 10:16:09;;;;;;;30.00;22.17;;;22.50;97.20;;;;;;5051636;28;20037;-86
2021/06/29 10:21:22;;;;;;;27.30;20.25;;;22.40;97.30;;;;;;5052776;28;20116;-86
2021/06/29 10:23:53;;;;;;;32.15;23.30;;;22.40;97.30;;;;;;5051412;28;20025;-86
2021/06/29 10:26:20;;;;;;;29.83;21.55;;;22.40;96.90;;;;;;5051284;28;20121;-86
2021/06/29 10:28:47;;;;;;;25.08;18.42;;;22.40;96.50;;;;;;5051176;28;20082;-86
2021/06/29 10:31:19;;;;;;;30.42;23.20;;;22.40;97.10;;;;;;5050693;28;20025;-86
2021/06/29 10:33:47;;;;;;;31.63;21.65;;;22.60;97.30;;;;;;5051514;28;20432;-86
2021/06/29 10:36:13;;;;;;;27.33;19.52;;;22.70;97.00;;;;;;5051088;28;20021;-86
2021/06/29 10:38:39;;;;;;;22.80;17.15;;;22.80;96.70;;;;;;5051093;28;20626;-86
2021/06/29 10:41:05;;;;;;;31.20;21.30;;;22.80;96.60;;;;;;5051620;28;20225;-86
2021/06/29 10:43:35;;;;;;;31.65;21.38;;;22.80;96.50;;;;;;5050936;28;20028;-85
2021/06/29 10:46:01;;;;;;;29.58;20.98;;;22.80;96.20;;;;;;5052313;28;20064;-86
2021/06/29 10:48:28;;;;;;;29.15;21.08;;;22.90;96.40;;;;;;5052238;28;20108;-87
2021/06/29 10:50:58;;;;;;;27.58;19.05;;;22.80;96.60;;;;;;5051624;28;20489;-86
2021/06/29 10:53:37;;;;;;;28.63;19.73;;;22.80;96.30;;;;;;5050316;28;20032;-86
2021/06/29 10:56:06;;;;;;;24.85;17.92;;;22.80;95.90;;;;;;5050995;28;20021;-86
2021/06/29 10:58:41;;;;;;;24.45;17.55;;;22.80;94.90;;;;;;5052275;28;20024;-86
2021/06/29 11:01:26;;;;;;;25.15;17.13;;;22.80;95.30;;;;;;5050076;28;20021;-86
2021/06/29 11:03:54;;;;;;;26.05;19.15;;;22.70;95.00;;;;;;5052056;28;20013;-86
2021/06/29 11:06:46;;;;;;;25.75;17.23;;;22.80;95.30;;;;;;5051951;28;20496;-86
2021/06/29 11:09:19;;;;;;;27.42;17.65;;;22.70;95.50;;;;;;5048267;28;20062;-86
2021/06/29 11:12:19;;;;;;;23.15;17.17;;;22.80;95.60;;;;;;5050554;28;20025;-86
2021/06/29 11:14:49;;;;;;;24.45;17.80;;;22.80;95.20;;;;;;5052410;28;20021;-86
2021/06/29 11:17:18;;;;;;;20.88;14.50;;;22.90;94.70;;;;;;5050534;28;20378;-86
2021/06/29 11:20:03;;;;;;;22.98;16.33;;;22.90;94.90;;;;;;5051204;28;20025;-86
2021/06/29 11:22:51;;;;;;;17.83;13.05;;;23.10;93.70;;;;;;5073536;22;20540;-84
2021/06/29 11:25:30;;;;;;;20.25;14.05;;;23.10;94.10;;;;;;5051690;28;20025;-85
2021/06/29 11:28:10;;;;;;;25.08;16.75;;;23.00;93.80;;;;;;5067139;28;20044;-85
2021/06/29 11:30:54;;;;;;;23.55;15.98;;;23.00;93.90;;;;;;5066513;28;20327;-85
2021/06/29 11:33:41;;;;;;;21.20;15.02;;;23.00;94.20;;;;;;5050222;28;20025;-85
2021/06/29 11:36:23;;;;;;;20.52;14.43;;;22.90;94.30;;;;;;5050476;28;20024;-85
2021/06/29 11:38:54;;;;;;;21.58;15.48;;;22.90;94.20;;;;;;5049885;28;20112;-84
2021/06/29 11:41:31;;;;;;;21.33;15.38;;;22.90;94.20;;;;;;5049932;28;20400;-85
2021/06/29 11:44:09;;;;;;;22.30;14.57;;;22.90;93.90;;;;;;5050424;28;20039;-85
2021/06/29 11:46:55;;;;;;;22.52;16.33;;;22.90;93.90;;;;;;5050126;28;20029;-84
2021/06/29 11:49:45;;;;;;;22.17;14.77;;;22.90;94.20;;;;;;5049719;28;20025;-85
2021/06/29 11:52:14;;;;;;;21.58;16.33;;;22.90;93.80;;;;;;5051416;28;20021;-85
2021/06/29 11:54:43;;;;;;;21.23;15.18;;;23.00;93.50;;;;;;5050296;28;20523;-84
2021/06/29 11:57:21;;;;;;;18.65;14.20;;;23.10;93.70;;;;;;5051367;28;20497;-85
2021/06/29 11:59:48;;;;;;;23.17;14.87;;;23.10;94.40;;;;;;5049582;28;20116;-85
2021/06/29 12:02:26;;;;;;;19.85;12.10;;;23.20;93.50;;;;;;5049949;28;20393;-85
2021/06/29 12:04:55;;;;;;;17.42;12.63;;;23.40;92.40;;;;;;5050952;28;20036;-85
2021/06/29 12:07:30;;;;;;;19.00;13.85;;;23.50;92.20;;;;;;5053790;28;20409;-85
2021/06/29 12:09:56;;;;;;;22.50;14.15;;;23.50;92.50;;;;;;5053080;28;20028;-85
2021/06/29 12:12:24;;;;;;;16.33;11.80;;;23.50;92.10;;;;;;5053399;28;20021;-85
2021/06/29 12:15:13;;;;;;;18.80;13.13;;;23.50;92.10;;;;;;5055130;28;20033;-85
2021/06/29 12:17:55;;;;;;;18.27;12.38;;;23.70;92.30;;;;;;5053613;28;20119;-85
2021/06/29 12:20:27;;;;;;;21.25;12.70;;;23.80;91.80;;;;;;5052976;28;20489;-85
2021/06/29 12:22:54;;;;;;;16.95;12.05;;;23.80;92.00;;;;;;5054824;28;20032;-85
2021/06/29 12:25:26;;;;;;;15.77;11.32;;;23.80;92.00;;;;;;5054829;28;20516;-84
2021/06/29 12:28:00;;;;;;;17.55;12.38;;;23.90;92.00;;;;;;5053379;28;20132;-85
2021/06/29 12:30:32;;;;;;;14.15;9.80;;;23.90;92.10;;;;;;5054211;28;20404;-85
2021/06/29 12:32:59;;;;;;;12.20;8.90;;;24.00;89.60;;;;;;5053439;28;20466;-85
2021/06/29 12:35:30;;;;;;;13.30;9.23;;;24.20;90.60;;;;;;5054648;28;20025;-85
2021/06/29 12:37:58;;;;;;;11.88;8.80;;;24.20;90.80;;;;;;5053313;28;20397;-85
2021/06/29 12:40:25;;;;;;;;;;;24.40;91.00;;;;;;5053203;28;20478;-84
2021/06/29 12:42:51;;;;;;;14.00;9.48;;;24.50;90.30;;;;;;5053190;28;19909;-85
2021/06/29 12:45:17;;;;;;;15.45;9.82;;;24.60;89.60;;;;;;5053298;28;20587;-85
2021/06/29 12:47:43;;;;;;;13.30;9.60;;;24.50;90.00;;;;;;5053003;28;20029;-85